OTBDOISS

Guest
Details From OTBD - Doha Intl
To OISS - Shiraz Shahid Dastghaib Intl
Flight Number -
Tags Generated
Created
Modified
Stats Distance 263 nm / 487 km
Max Altitude 0 ft / 0 m
Waypoints 3
Social Downloads 2
Likes 0
Share VATSIM

Download

Looking for another format? Having issues loading an existing format? Contact us
Advertisement - Login to hide

Notes

Generated

Route

OTBD SYZ OISS

ID Type Via Altitude Latitude Longitude Leg Dist Tot Dist Heading (true) Name
O OTBD APT - 0 ft / 0 m 25.28022˚ 51.55653˚ - 0 nm - -
SYZ VOR - 0 ft / 0 m 29.54017˚ 52.58878˚ 261 nm 261 nm 12° / 12° SHIRAZ SHAHID DASTGHAIB VOR-DM
O OISS APT - 0 ft / 0 m 29.54534˚ 52.56881˚ 1 nm 262 nm 287° / 287° -

Altitude Profile

Advertisement - Login to hide

Weather


0- 5 10 15 20 25 30 35+ Temperature / ° C

Clouds and Precipitation
Forecast for 2017-12-15 06:00 UTC. Updated an hour ago

Ground ~20,000 ft ~40,000 ft Winds

OTBD

Details ICAO OTBD (DOH)
Name DOHA INTL
Region Qatar
Timezone Asia/Qatar (UTC+3.0)
Stats Elevation 35 ft / 11 m (AMSL)
Location 25.261056° 51.564999°
Runways 1
Magnetic Variation 2.481° E

METAR

OTBD 150600Z 19005KT CAVOK 21/12 Q1018 NOSIG

Decode

TAF

TAF OTBD 150501Z 1506/1612 22004KT 8000 NSC BECMG 1509/1511 15008KT BECMG 1601/1603 30005KT

Decode

Departure Runways

ID Width Length Bearing (true) Bearing (mag) Surface Threshold Offset Overrun Length
16 151 ft / 46 m 15,065 ft / 4,592 m 158.20° 155.72° Asphalt 2,460 ft / 750 m 98 ft / 30 m
34 151 ft / 46 m 15,065 ft / 4,592 m 338.21° 335.73° Asphalt 0 ft / 0 m 460 ft / 140 m

OISS

Details ICAO OISS (SYZ)
Name SHIRAZ SHAHID DASTGHAIB INTL
Region Iran
Timezone Asia/Tehran (UTC+3.5)
Stats Elevation 4,920 ft / 1,500 m (AMSL)
Location 29.539241° 52.589784°
Runways 2
Magnetic Variation 3.160° E

METAR

OISS 150630Z VRB02KT 7000 FEW035TCU SCT040 BKN190 09/01 Q1022 A3019

Decode

TAF

TAF OISS 150530Z 1506/1612 07004MPS 6000 FEW030CB SCT035 BKN100 TEMPO 1506/1510 05008MPS 3000 TSRA SCT030CB SCT035 OVC090 TEMPO 1518/1603 1500 BR RA SCT015 SCT030CB SCT035 OVC090 TEMPO 1609/1612 05008MPS 3000 TSRA SCT030CB SCT035 OVC090

Decode

Destination Runways

ID Width Length Bearing (true) Bearing (mag) Surface Threshold Offset Overrun Length
11L 148 ft / 45 m 14,334 ft / 4,369 m 114.53° 111.37° Asphalt 0 ft / 0 m 1,444 ft / 440 m
11R 148 ft / 45 m 14,040 ft / 4,279 m 114.41° 111.25° Asphalt 0 ft / 0 m 1,000 ft / 305 m
29L 148 ft / 45 m 14,040 ft / 4,279 m 294.42° 291.26° Asphalt 0 ft / 0 m 1,000 ft / 305 m
29R 148 ft / 45 m 14,334 ft / 4,369 m 294.56° 291.40° Asphalt 0 ft / 0 m 1,148 ft / 350 m

Approach Navaids

Runway Type Ident Frequency Range Bearing (true) Bearing (mag) Slope Elevation
29L Localiser ISYZ 109.90 MHz 18 nm / 33 km 294.40° 291.24° - 4,933 ft / 1,504 m (AMSL)
29L Glidescope ISYZ 109.90 MHz 10 nm / 19 km 294.42° 291.25° 3.00° 4,864 ft / 1,483 m (AMSL)
29L DME ISYZ 109.90 MHz 18 nm / 33 km - - - 4,868 ft / 1,484 m (AMSL)

Popular Alternatives